sensor_id;sensor_type;location;lat;lon;timestamp;P1;durP1;ratioP1;P2;durP2;ratioP2
4248;SDS011;8404;48.752;12.922;2022-10-15T00:01:33;13.38;;;11.52;;
4248;SDS011;8404;48.752;12.922;2022-10-15T00:04:01;14.98;;;12.07;;
4248;SDS011;8404;48.752;12.922;2022-10-15T00:06:29;16.00;;;12.43;;
4248;SDS011;8404;48.752;12.922;2022-10-15T00:08:58;13.98;;;11.00;;
4248;SDS011;8404;48.752;12.922;2022-10-15T00:11:26;14.18;;;11.57;;
4248;SDS011;8404;48.752;12.922;2022-10-15T00:13:57;14.05;;;12.18;;
4248;SDS011;8404;48.752;12.922;2022-10-15T00:16:27;16.00;;;11.43;;
4248;SDS011;8404;48.752;12.922;2022-10-15T00:18:57;14.85;;;11.45;;
4248;SDS011;8404;48.752;12.922;2022-10-15T00:21:26;14.90;;;12.75;;
4248;SDS011;8404;48.752;12.922;2022-10-15T00:23:54;14.75;;;12.10;;
4248;SDS011;8404;48.752;12.922;2022-10-15T00:26:23;14.43;;;12.60;;
4248;SDS011;8404;48.752;12.922;2022-10-15T00:28:53;12.02;;;10.68;;
4248;SDS011;8404;48.752;12.922;2022-10-15T00:31:25;14.52;;;10.52;;
4248;SDS011;8404;48.752;12.922;2022-10-15T00:33:55;13.05;;;10.48;;
4248;SDS011;8404;48.752;12.922;2022-10-15T00:36:25;13.40;;;10.68;;
4248;SDS011;8404;48.752;12.922;2022-10-15T00:38:54;14.73;;;11.77;;
4248;SDS011;8404;48.752;12.922;2022-10-15T00:41:24;11.48;;;9.68;;
4248;SDS011;8404;48.752;12.922;2022-10-15T00:43:55;16.00;;;11.43;;
4248;SDS011;8404;48.752;12.922;2022-10-15T00:46:27;16.70;;;11.57;;
4248;SDS011;8404;48.752;12.922;2022-10-15T00:49:00;12.40;;;10.57;;
4248;SDS011;8404;48.752;12.922;2022-10-15T00:51:32;13.55;;;11.70;;
4248;SDS011;8404;48.752;12.922;2022-10-15T00:54:10;15.60;;;11.18;;
4248;SDS011;8404;48.752;12.922;2022-10-15T00:56:39;14.27;;;11.77;;
4248;SDS011;8404;48.752;12.922;2022-10-15T00:59:10;14.77;;;12.15;;
4248;SDS011;8404;48.752;12.922;2022-10-15T01:01:41;15.02;;;11.85;;
4248;SDS011;8404;48.752;12.922;2022-10-15T01:04:10;15.65;;;11.32;;
4248;SDS011;8404;48.752;12.922;2022-10-15T01:06:39;13.70;;;11.32;;
4248;SDS011;8404;48.752;12.922;2022-10-15T01:09:07;13.93;;;11.45;;
4248;SDS011;8404;48.752;12.922;2022-10-15T01:11:36;15.30;;;11.93;;
4248;SDS011;8404;48.752;12.922;2022-10-15T01:14:21;17.58;;;13.43;;
4248;SDS011;8404;48.752;12.922;2022-10-15T01:17:00;15.75;;;13.10;;
4248;SDS011;8404;48.752;12.922;2022-10-15T01:19:42;13.55;;;11.18;;
4248;SDS011;8404;48.752;12.922;2022-10-15T01:22:38;15.73;;;12.32;;
4248;SDS011;8404;48.752;12.922;2022-10-15T01:25:20;14.93;;;11.90;;
4248;SDS011;8404;48.752;12.922;2022-10-15T01:28:00;13.68;;;11.02;;
4248;SDS011;8404;48.752;12.922;2022-10-15T01:30:44;14.82;;;10.75;;
4248;SDS011;8404;48.752;12.922;2022-10-15T01:33:21;14.80;;;12.18;;
4248;SDS011;8404;48.752;12.922;2022-10-15T01:35:57;14.25;;;11.77;;
4248;SDS011;8404;48.752;12.922;2022-10-15T01:38:36;13.95;;;12.50;;
4248;SDS011;8404;48.752;12.922;2022-10-15T01:41:13;13.68;;;12.18;;
4248;SDS011;8404;48.752;12.922;2022-10-15T01:43:51;15.32;;;12.52;;
4248;SDS011;8404;48.752;12.922;2022-10-15T01:46:34;18.98;;;12.85;;
4248;SDS011;8404;48.752;12.922;2022-10-15T01:49:07;12.90;;;11.57;;
4248;SDS011;8404;48.752;12.922;2022-10-15T01:51:42;14.43;;;12.40;;
4248;SDS011;8404;48.752;12.922;2022-10-15T01:54:13;14.00;;;11.70;;
4248;SDS011;8404;48.752;12.922;2022-10-15T01:56:43;15.52;;;11.82;;
4248;SDS011;8404;48.752;12.922;2022-10-15T01:59:18;15.15;;;12.75;;
4248;SDS011;8404;48.752;12.922;2022-10-15T02:01:50;15.93;;;12.48;;
4248;SDS011;8404;48.752;12.922;2022-10-15T02:04:23;17.05;;;13.05;;
4248;SDS011;8404;48.752;12.922;2022-10-15T02:06:54;14.18;;;12.68;;
4248;SDS011;8404;48.752;12.922;2022-10-15T02:09:30;16.48;;;12.70;;
4248;SDS011;8404;48.752;12.922;2022-10-15T02:12:08;17.80;;;13.38;;
4248;SDS011;8404;48.752;12.922;2022-10-15T02:14:46;14.55;;;11.93;;
4248;SDS011;8404;48.752;12.922;2022-10-15T02:17:22;17.45;;;12.55;;
4248;SDS011;8404;48.752;12.922;2022-10-15T02:19:58;16.33;;;12.95;;
4248;SDS011;8404;48.752;12.922;2022-10-15T02:22:33;17.48;;;12.93;;
4248;SDS011;8404;48.752;12.922;2022-10-15T02:25:07;17.20;;;11.75;;
4248;SDS011;8404;48.752;12.922;2022-10-15T02:27:39;15.23;;;12.07;;
4248;SDS011;8404;48.752;12.922;2022-10-15T02:30:10;15.43;;;12.50;;
4248;SDS011;8404;48.752;12.922;2022-10-15T02:32:42;17.85;;;13.95;;
4248;SDS011;8404;48.752;12.922;2022-10-15T02:35:18;16.70;;;13.05;;
4248;SDS011;8404;48.752;12.922;2022-10-15T02:37:48;14.75;;;12.10;;
4248;SDS011;8404;48.752;12.922;2022-10-15T02:40:20;15.30;;;12.35;;
4248;SDS011;8404;48.752;12.922;2022-10-15T02:42:53;15.60;;;12.35;;
4248;SDS011;8404;48.752;12.922;2022-10-15T02:45:21;15.25;;;12.23;;
4248;SDS011;8404;48.752;12.922;2022-10-15T02:47:51;16.75;;;13.45;;
4248;SDS011;8404;48.752;12.922;2022-10-15T02:50:19;19.08;;;13.13;;
4248;SDS011;8404;48.752;12.922;2022-10-15T02:52:47;15.85;;;12.43;;
4248;SDS011;8404;48.752;12.922;2022-10-15T02:55:16;16.17;;;12.80;;
4248;SDS011;8404;48.752;12.922;2022-10-15T02:57:44;16.42;;;12.68;;
4248;SDS011;8404;48.752;12.922;2022-10-15T03:00:12;17.23;;;13.07;;
4248;SDS011;8404;48.752;12.922;2022-10-15T03:02:41;21.15;;;14.88;;
4248;SDS011;8404;48.752;12.922;2022-10-15T03:05:11;17.83;;;13.50;;
4248;SDS011;8404;48.752;12.922;2022-10-15T03:07:41;16.58;;;13.65;;
4248;SDS011;8404;48.752;12.922;2022-10-15T03:10:09;15.30;;;12.50;;
4248;SDS011;8404;48.752;12.922;2022-10-15T03:12:38;15.10;;;12.30;;
4248;SDS011;8404;48.752;12.922;2022-10-15T03:15:07;16.48;;;13.32;;
4248;SDS011;8404;48.752;12.922;2022-10-15T03:17:36;17.98;;;12.98;;
4248;SDS011;8404;48.752;12.922;2022-10-15T03:20:04;18.35;;;13.90;;
4248;SDS011;8404;48.752;12.922;2022-10-15T03:22:37;19.13;;;14.48;;
4248;SDS011;8404;48.752;12.922;2022-10-15T03:25:05;17.73;;;14.07;;
4248;SDS011;8404;48.752;12.922;2022-10-15T03:27:34;16.10;;;13.48;;
4248;SDS011;8404;48.752;12.922;2022-10-15T03:30:11;17.48;;;13.90;;
4248;SDS011;8404;48.752;12.922;2022-10-15T03:32:40;18.38;;;13.93;;
4248;SDS011;8404;48.752;12.922;2022-10-15T03:35:14;19.23;;;14.05;;
4248;SDS011;8404;48.752;12.922;2022-10-15T03:37:44;18.35;;;14.40;;
4248;SDS011;8404;48.752;12.922;2022-10-15T03:40:12;18.17;;;14.30;;
4248;SDS011;8404;48.752;12.922;2022-10-15T03:42:42;17.25;;;14.35;;
4248;SDS011;8404;48.752;12.922;2022-10-15T03:45:10;15.35;;;12.40;;
4248;SDS011;8404;48.752;12.922;2022-10-15T03:47:38;19.40;;;15.45;;
4248;SDS011;8404;48.752;12.922;2022-10-15T03:50:07;18.63;;;14.35;;
4248;SDS011;8404;48.752;12.922;2022-10-15T03:52:35;16.40;;;13.02;;
4248;SDS011;8404;48.752;12.922;2022-10-15T03:55:06;17.70;;;13.68;;
4248;SDS011;8404;48.752;12.922;2022-10-15T03:57:36;21.55;;;14.70;;
4248;SDS011;8404;48.752;12.922;2022-10-15T04:00:05;17.23;;;13.27;;
4248;SDS011;8404;48.752;12.922;2022-10-15T04:02:37;16.70;;;13.05;;
4248;SDS011;8404;48.752;12.922;2022-10-15T04:05:18;16.42;;;13.05;;
4248;SDS011;8404;48.752;12.922;2022-10-15T04:07:52;20.92;;;14.45;;
4248;SDS011;8404;48.752;12.922;2022-10-15T04:10:23;17.05;;;12.93;;
4248;SDS011;8404;48.752;12.922;2022-10-15T04:12:51;16.58;;;13.48;;
4248;SDS011;8404;48.752;12.922;2022-10-15T04:15:19;14.98;;;12.75;;
4248;SDS011;8404;48.752;12.922;2022-10-15T04:17:53;17.13;;;14.20;;
4248;SDS011;8404;48.752;12.922;2022-10-15T04:20:24;14.98;;;13.20;;
4248;SDS011;8404;48.752;12.922;2022-10-15T04:22:57;17.35;;;13.55;;
4248;SDS011;8404;48.752;12.922;2022-10-15T04:25:27;16.63;;;13.90;;
4248;SDS011;8404;48.752;12.922;2022-10-15T04:27:56;17.40;;;13.25;;
4248;SDS011;8404;48.752;12.922;2022-10-15T04:30:24;18.55;;;13.70;;
4248;SDS011;8404;48.752;12.922;2022-10-15T04:32:57;16.98;;;13.80;;
4248;SDS011;8404;48.752;12.922;2022-10-15T04:35:26;17.58;;;13.93;;
4248;SDS011;8404;48.752;12.922;2022-10-15T04:38:08;15.80;;;14.10;;
4248;SDS011;8404;48.752;12.922;2022-10-15T04:40:58;14.82;;;12.88;;
4248;SDS011;8404;48.752;12.922;2022-10-15T04:43:40;17.60;;;13.30;;
4248;SDS011;8404;48.752;12.922;2022-10-15T04:46:10;17.92;;;13.57;;
4248;SDS011;8404;48.752;12.922;2022-10-15T04:48:39;19.50;;;16.17;;
4248;SDS011;8404;48.752;12.922;2022-10-15T04:51:12;19.17;;;13.43;;
4248;SDS011;8404;48.752;12.922;2022-10-15T04:54:01;17.35;;;13.75;;
4248;SDS011;8404;48.752;12.922;2022-10-15T04:56:32;15.65;;;13.55;;
4248;SDS011;8404;48.752;12.922;2022-10-15T04:59:00;15.48;;;11.77;;
4248;SDS011;8404;48.752;12.922;2022-10-15T05:01:38;17.70;;;13.45;;
4248;SDS011;8404;48.752;12.922;2022-10-15T05:04:08;17.52;;;13.35;;
4248;SDS011;8404;48.752;12.922;2022-10-15T05:06:38;17.20;;;12.77;;
4248;SDS011;8404;48.752;12.922;2022-10-15T05:09:17;15.02;;;12.40;;
4248;SDS011;8404;48.752;12.922;2022-10-15T05:11:49;15.07;;;11.25;;
4248;SDS011;8404;48.752;12.922;2022-10-15T05:14:18;14.98;;;11.43;;
4248;SDS011;8404;48.752;12.922;2022-10-15T05:17:02;16.67;;;10.98;;
4248;SDS011;8404;48.752;12.922;2022-10-15T05:19:36;14.00;;;10.77;;
4248;SDS011;8404;48.752;12.922;2022-10-15T05:22:07;13.85;;;10.52;;
4248;SDS011;8404;48.752;12.922;2022-10-15T05:24:42;12.90;;;9.43;;
4248;SDS011;8404;48.752;12.922;2022-10-15T05:27:23;12.00;;;8.32;;
4248;SDS011;8404;48.752;12.922;2022-10-15T05:29:51;11.30;;;8.80;;
4248;SDS011;8404;48.752;12.922;2022-10-15T05:32:19;11.90;;;8.35;;
4248;SDS011;8404;48.752;12.922;2022-10-15T05:34:50;11.27;;;8.85;;
4248;SDS011;8404;48.752;12.922;2022-10-15T05:37:19;10.23;;;7.88;;
4248;SDS011;8404;48.752;12.922;2022-10-15T05:39:48;12.80;;;8.25;;
4248;SDS011;8404;48.752;12.922;2022-10-15T05:42:16;9.32;;;7.60;;
4248;SDS011;8404;48.752;12.922;2022-10-15T05:44:52;9.07;;;7.07;;
4248;SDS011;8404;48.752;12.922;2022-10-15T05:47:20;9.13;;;7.10;;
4248;SDS011;8404;48.752;12.922;2022-10-15T05:49:54;9.75;;;6.90;;
4248;SDS011;8404;48.752;12.922;2022-10-15T05:52:27;6.97;;;5.65;;
4248;SDS011;8404;48.752;12.922;2022-10-15T05:55:09;7.15;;;5.15;;
4248;SDS011;8404;48.752;12.922;2022-10-15T05:57:38;6.90;;;4.90;;
4248;SDS011;8404;48.752;12.922;2022-10-15T06:00:08;6.13;;;4.25;;
4248;SDS011;8404;48.752;12.922;2022-10-15T06:02:37;7.47;;;5.18;;
4248;SDS011;8404;48.752;12.922;2022-10-15T06:05:06;6.03;;;4.45;;
4248;SDS011;8404;48.752;12.922;2022-10-15T06:07:34;5.72;;;4.07;;
4248;SDS011;8404;48.752;12.922;2022-10-15T06:10:03;6.68;;;4.90;;
4248;SDS011;8404;48.752;12.922;2022-10-15T06:12:38;6.30;;;5.32;;
4248;SDS011;8404;48.752;12.922;2022-10-15T06:15:08;6.38;;;5.07;;
4248;SDS011;8404;48.752;12.922;2022-10-15T06:17:36;6.78;;;5.53;;
4248;SDS011;8404;48.752;12.922;2022-10-15T06:20:05;7.82;;;5.75;;
4248;SDS011;8404;48.752;12.922;2022-10-15T06:22:33;7.40;;;5.03;;
4248;SDS011;8404;48.752;12.922;2022-10-15T06:25:03;5.53;;;4.50;;
4248;SDS011;8404;48.752;12.922;2022-10-15T06:27:31;6.38;;;4.75;;
4248;SDS011;8404;48.752;12.922;2022-10-15T06:29:59;5.82;;;4.30;;
4248;SDS011;8404;48.752;12.922;2022-10-15T06:32:29;6.75;;;5.18;;
4248;SDS011;8404;48.752;12.922;2022-10-15T06:34:57;5.55;;;4.43;;
4248;SDS011;8404;48.752;12.922;2022-10-15T06:37:27;6.25;;;4.68;;
4248;SDS011;8404;48.752;12.922;2022-10-15T06:39:57;6.15;;;4.47;;
4248;SDS011;8404;48.752;12.922;2022-10-15T06:42:25;5.50;;;4.25;;
4248;SDS011;8404;48.752;12.922;2022-10-15T06:44:54;5.15;;;4.15;;
4248;SDS011;8404;48.752;12.922;2022-10-15T06:47:22;5.60;;;4.15;;
4248;SDS011;8404;48.752;12.922;2022-10-15T06:49:52;4.85;;;3.20;;
4248;SDS011;8404;48.752;12.922;2022-10-15T06:52:20;4.35;;;3.35;;
4248;SDS011;8404;48.752;12.922;2022-10-15T06:54:49;3.70;;;3.03;;
4248;SDS011;8404;48.752;12.922;2022-10-15T06:57:19;4.05;;;3.20;;
4248;SDS011;8404;48.752;12.922;2022-10-15T06:59:51;3.50;;;2.65;;
4248;SDS011;8404;48.752;12.922;2022-10-15T07:02:19;4.25;;;3.28;;
4248;SDS011;8404;48.752;12.922;2022-10-15T07:04:47;5.28;;;3.58;;
4248;SDS011;8404;48.752;12.922;2022-10-15T07:07:20;3.38;;;2.90;;
4248;SDS011;8404;48.752;12.922;2022-10-15T07:09:48;3.25;;;2.90;;
4248;SDS011;8404;48.752;12.922;2022-10-15T07:12:18;4.75;;;3.03;;
4248;SDS011;8404;48.752;12.922;2022-10-15T07:14:48;3.58;;;2.50;;
4248;SDS011;8404;48.752;12.922;2022-10-15T07:17:16;3.95;;;2.38;;
4248;SDS011;8404;48.752;12.922;2022-10-15T07:19:44;3.20;;;2.42;;
4248;SDS011;8404;48.752;12.922;2022-10-15T07:22:12;2.70;;;1.90;;
4248;SDS011;8404;48.752;12.922;2022-10-15T07:24:42;3.38;;;2.40;;
4248;SDS011;8404;48.752;12.922;2022-10-15T07:27:10;3.03;;;2.33;;
4248;SDS011;8404;48.752;12.922;2022-10-15T07:29:45;2.85;;;1.83;;
4248;SDS011;8404;48.752;12.922;2022-10-15T07:32:13;2.58;;;1.90;;
4248;SDS011;8404;48.752;12.922;2022-10-15T07:34:41;2.53;;;1.92;;
4248;SDS011;8404;48.752;12.922;2022-10-15T07:37:11;2.75;;;2.08;;
4248;SDS011;8404;48.752;12.922;2022-10-15T07:39:39;2.65;;;1.90;;
4248;SDS011;8404;48.752;12.922;2022-10-15T07:42:08;2.45;;;1.52;;
4248;SDS011;8404;48.752;12.922;2022-10-15T07:44:41;2.00;;;1.40;;
4248;SDS011;8404;48.752;12.922;2022-10-15T07:47:12;2.65;;;1.42;;
4248;SDS011;8404;48.752;12.922;2022-10-15T07:49:40;1.95;;;1.40;;
4248;SDS011;8404;48.752;12.922;2022-10-15T07:52:08;2.72;;;1.23;;
4248;SDS011;8404;48.752;12.922;2022-10-15T07:54:36;1.65;;;1.10;;
4248;SDS011;8404;48.752;12.922;2022-10-15T07:57:04;1.88;;;1.05;;
4248;SDS011;8404;48.752;12.922;2022-10-15T07:59:34;1.83;;;0.98;;
4248;SDS011;8404;48.752;12.922;2022-10-15T08:02:02;1.40;;;1.00;;
4248;SDS011;8404;48.752;12.922;2022-10-15T08:04:30;1.00;;;0.70;;
4248;SDS011;8404;48.752;12.922;2022-10-15T08:07:00;1.73;;;0.90;;
4248;SDS011;8404;48.752;12.922;2022-10-15T08:09:33;1.25;;;0.90;;
4248;SDS011;8404;48.752;12.922;2022-10-15T08:12:01;1.30;;;0.77;;
4248;SDS011;8404;48.752;12.922;2022-10-15T08:14:31;1.35;;;0.90;;
4248;SDS011;8404;48.752;12.922;2022-10-15T08:17:01;0.70;;;0.60;;
4248;SDS011;8404;48.752;12.922;2022-10-15T08:19:30;1.58;;;0.85;;
4248;SDS011;8404;48.752;12.922;2022-10-15T08:21:58;1.65;;;0.77;;
4248;SDS011;8404;48.752;12.922;2022-10-15T08:24:26;1.55;;;0.75;;
4248;SDS011;8404;48.752;12.922;2022-10-15T08:26:55;1.67;;;0.60;;
4248;SDS011;8404;48.752;12.922;2022-10-15T08:29:24;0.95;;;0.73;;
4248;SDS011;8404;48.752;12.922;2022-10-15T08:31:53;2.25;;;0.88;;
4248;SDS011;8404;48.752;12.922;2022-10-15T08:34:23;1.30;;;0.85;;
4248;SDS011;8404;48.752;12.922;2022-10-15T08:36:51;0.88;;;0.52;;
4248;SDS011;8404;48.752;12.922;2022-10-15T08:39:19;0.95;;;0.88;;
4248;SDS011;8404;48.752;12.922;2022-10-15T08:41:48;0.75;;;0.60;;
4248;SDS011;8404;48.752;12.922;2022-10-15T08:44:20;1.13;;;0.60;;
4248;SDS011;8404;48.752;12.922;2022-10-15T08:46:52;0.52;;;0.40;;
4248;SDS011;8404;48.752;12.922;2022-10-15T08:49:29;1.10;;;0.60;;
4248;SDS011;8404;48.752;12.922;2022-10-15T08:52:06;2.33;;;0.90;;
4248;SDS011;8404;48.752;12.922;2022-10-15T08:54:43;1.40;;;0.60;;
4248;SDS011;8404;48.752;12.922;2022-10-15T08:57:16;1.58;;;1.25;;
4248;SDS011;8404;48.752;12.922;2022-10-15T08:59:51;1.40;;;0.93;;
4248;SDS011;8404;48.752;12.922;2022-10-15T09:02:25;1.63;;;1.08;;
4248;SDS011;8404;48.752;12.922;2022-10-15T09:05:02;1.95;;;1.20;;
4248;SDS011;8404;48.752;12.922;2022-10-15T09:07:45;2.40;;;1.40;;
4248;SDS011;8404;48.752;12.922;2022-10-15T09:12:54;2.60;;;1.27;;
4248;SDS011;8404;48.752;12.922;2022-10-15T09:15:26;1.80;;;1.10;;
4248;SDS011;8404;48.752;12.922;2022-10-15T09:17:59;2.28;;;1.08;;
4248;SDS011;8404;48.752;12.922;2022-10-15T09:20:33;3.20;;;0.95;;
4248;SDS011;8404;48.752;12.922;2022-10-15T09:23:07;1.45;;;0.90;;
4248;SDS011;8404;48.752;12.922;2022-10-15T09:25:41;1.33;;;1.00;;
4248;SDS011;8404;48.752;12.922;2022-10-15T09:28:15;1.23;;;0.80;;
4248;SDS011;8404;48.752;12.922;2022-10-15T09:30:45;3.08;;;1.25;;
4248;SDS011;8404;48.752;12.922;2022-10-15T09:33:17;1.15;;;0.80;;
4248;SDS011;8404;48.752;12.922;2022-10-15T09:35:59;1.45;;;0.90;;
4248;SDS011;8404;48.752;12.922;2022-10-15T09:38:43;1.65;;;0.88;;
4248;SDS011;8404;48.752;12.922;2022-10-15T09:41:19;1.00;;;0.70;;
4248;SDS011;8404;48.752;12.922;2022-10-15T09:43:55;2.03;;;1.27;;
4248;SDS011;8404;48.752;12.922;2022-10-15T09:46:41;2.60;;;1.05;;
4248;SDS011;8404;48.752;12.922;2022-10-15T09:49:11;1.35;;;1.02;;
4248;SDS011;8404;48.752;12.922;2022-10-15T09:51:51;1.50;;;0.80;;
4248;SDS011;8404;48.752;12.922;2022-10-15T09:54:30;1.25;;;1.00;;
4248;SDS011;8404;48.752;12.922;2022-10-15T09:57:09;2.22;;;0.93;;
4248;SDS011;8404;48.752;12.922;2022-10-15T09:59:50;1.20;;;0.80;;
4248;SDS011;8404;48.752;12.922;2022-10-15T10:02:19;2.92;;;1.20;;
4248;SDS011;8404;48.752;12.922;2022-10-15T10:04:49;1.30;;;0.80;;
4248;SDS011;8404;48.752;12.922;2022-10-15T10:07:29;1.10;;;0.85;;
4248;SDS011;8404;48.752;12.922;2022-10-15T10:10:01;1.13;;;0.80;;
4248;SDS011;8404;48.752;12.922;2022-10-15T10:12:31;1.90;;;1.10;;
4248;SDS011;8404;48.752;12.922;2022-10-15T10:15:02;1.85;;;0.88;;
4248;SDS011;8404;48.752;12.922;2022-10-15T10:17:33;2.58;;;1.10;;
4248;SDS011;8404;48.752;12.922;2022-10-15T10:20:02;1.98;;;1.10;;
4248;SDS011;8404;48.752;12.922;2022-10-15T10:22:45;1.48;;;0.95;;
4248;SDS011;8404;48.752;12.922;2022-10-15T10:25:28;1.10;;;0.90;;
4248;SDS011;8404;48.752;12.922;2022-10-15T10:28:13;1.80;;;1.10;;
4248;SDS011;8404;48.752;12.922;2022-10-15T10:30:48;1.45;;;0.88;;
4248;SDS011;8404;48.752;12.922;2022-10-15T10:33:23;1.60;;;1.10;;
4248;SDS011;8404;48.752;12.922;2022-10-15T10:35:53;1.88;;;1.10;;
4248;SDS011;8404;48.752;12.922;2022-10-15T10:38:24;2.72;;;1.70;;
4248;SDS011;8404;48.752;12.922;2022-10-15T10:40:56;2.65;;;2.30;;
4248;SDS011;8404;48.752;12.922;2022-10-15T10:43:30;2.63;;;2.00;;
4248;SDS011;8404;48.752;12.922;2022-10-15T10:46:05;2.78;;;1.70;;
4248;SDS011;8404;48.752;12.922;2022-10-15T10:48:47;2.40;;;1.38;;
4248;SDS011;8404;48.752;12.922;2022-10-15T10:51:18;2.13;;;1.15;;
4248;SDS011;8404;48.752;12.922;2022-10-15T10:53:54;1.40;;;0.90;;
4248;SDS011;8404;48.752;12.922;2022-10-15T10:56:26;1.95;;;0.93;;
4248;SDS011;8404;48.752;12.922;2022-10-15T10:58:56;1.30;;;0.98;;
4248;SDS011;8404;48.752;12.922;2022-10-15T11:01:26;1.88;;;1.13;;
4248;SDS011;8404;48.752;12.922;2022-10-15T11:03:55;1.15;;;0.90;;
4248;SDS011;8404;48.752;12.922;2022-10-15T11:06:34;1.85;;;1.00;;
4248;SDS011;8404;48.752;12.922;2022-10-15T11:09:29;2.75;;;1.33;;
4248;SDS011;8404;48.752;12.922;2022-10-15T11:12:07;1.42;;;1.05;;
4248;SDS011;8404;48.752;12.922;2022-10-15T11:14:44;3.45;;;1.27;;
4248;SDS011;8404;48.752;12.922;2022-10-15T11:17:22;1.77;;;1.10;;
4248;SDS011;8404;48.752;12.922;2022-10-15T11:20:10;2.17;;;1.42;;
4248;SDS011;8404;48.752;12.922;2022-10-15T11:23:07;2.20;;;1.20;;
4248;SDS011;8404;48.752;12.922;2022-10-15T11:25:45;2.08;;;1.17;;
4248;SDS011;8404;48.752;12.922;2022-10-15T11:28:25;1.13;;;0.82;;
4248;SDS011;8404;48.752;12.922;2022-10-15T11:31:03;1.85;;;0.80;;
4248;SDS011;8404;48.752;12.922;2022-10-15T11:33:43;1.17;;;0.88;;
4248;SDS011;8404;48.752;12.922;2022-10-15T11:36:21;2.22;;;0.80;;
4248;SDS011;8404;48.752;12.922;2022-10-15T11:39:05;2.80;;;1.70;;
4248;SDS011;8404;48.752;12.922;2022-10-15T11:41:46;2.00;;;0.90;;
4248;SDS011;8404;48.752;12.922;2022-10-15T11:44:23;1.45;;;1.00;;
4248;SDS011;8404;48.752;12.922;2022-10-15T11:47:12;2.72;;;1.60;;
4248;SDS011;8404;48.752;12.922;2022-10-15T11:49:51;1.77;;;1.05;;
4248;SDS011;8404;48.752;12.922;2022-10-15T11:52:35;1.98;;;0.80;;
4248;SDS011;8404;48.752;12.922;2022-10-15T11:55:16;1.95;;;0.80;;
4248;SDS011;8404;48.752;12.922;2022-10-15T11:57:48;1.08;;;0.60;;
4248;SDS011;8404;48.752;12.922;2022-10-15T12:00:25;1.38;;;0.73;;
4248;SDS011;8404;48.752;12.922;2022-10-15T12:02:59;1.15;;;0.75;;
4248;SDS011;8404;48.752;12.922;2022-10-15T12:05:32;1.40;;;0.88;;
4248;SDS011;8404;48.752;12.922;2022-10-15T12:08:04;2.00;;;0.57;;
4248;SDS011;8404;48.752;12.922;2022-10-15T12:10:39;0.98;;;0.63;;
4248;SDS011;8404;48.752;12.922;2022-10-15T12:13:24;1.05;;;0.60;;
4248;SDS011;8404;48.752;12.922;2022-10-15T12:16:01;1.00;;;0.60;;
4248;SDS011;8404;48.752;12.922;2022-10-15T12:18:39;1.75;;;0.63;;
4248;SDS011;8404;48.752;12.922;2022-10-15T12:24:08;1.17;;;0.60;;
4248;SDS011;8404;48.752;12.922;2022-10-15T12:27:29;0.60;;;0.43;;
4248;SDS011;8404;48.752;12.922;2022-10-15T12:30:18;1.00;;;0.60;;
4248;SDS011;8404;48.752;12.922;2022-10-15T12:32:48;2.55;;;0.60;;
4248;SDS011;8404;48.752;12.922;2022-10-15T12:35:19;1.00;;;0.65;;
4248;SDS011;8404;48.752;12.922;2022-10-15T12:37:50;1.10;;;0.63;;
4248;SDS011;8404;48.752;12.922;2022-10-15T12:40:25;1.50;;;0.70;;
4248;SDS011;8404;48.752;12.922;2022-10-15T12:42:55;0.97;;;0.70;;
4248;SDS011;8404;48.752;12.922;2022-10-15T12:45:29;1.10;;;0.55;;
4248;SDS011;8404;48.752;12.922;2022-10-15T12:48:15;1.10;;;0.70;;
4248;SDS011;8404;48.752;12.922;2022-10-15T12:50:46;1.50;;;0.60;;
4248;SDS011;8404;48.752;12.922;2022-10-15T12:56:11;1.83;;;0.50;;
4248;SDS011;8404;48.752;12.922;2022-10-15T12:58:47;2.05;;;0.43;;
4248;SDS011;8404;48.752;12.922;2022-10-15T13:01:27;0.68;;;0.50;;
4248;SDS011;8404;48.752;12.922;2022-10-15T13:03:58;1.40;;;0.75;;
4248;SDS011;8404;48.752;12.922;2022-10-15T13:06:31;0.70;;;0.50;;
4248;SDS011;8404;48.752;12.922;2022-10-15T13:09:05;1.15;;;0.70;;
4248;SDS011;8404;48.752;12.922;2022-10-15T13:11:55;0.75;;;0.50;;
4248;SDS011;8404;48.752;12.922;2022-10-15T13:14:29;1.05;;;0.50;;
4248;SDS011;8404;48.752;12.922;2022-10-15T13:17:03;0.80;;;0.50;;
4248;SDS011;8404;48.752;12.922;2022-10-15T13:19:40;1.63;;;1.30;;
4248;SDS011;8404;48.752;12.922;2022-10-15T13:22:19;1.85;;;0.90;;
4248;SDS011;8404;48.752;12.922;2022-10-15T13:24:49;1.92;;;0.65;;
4248;SDS011;8404;48.752;12.922;2022-10-15T13:27:20;1.10;;;0.60;;
4248;SDS011;8404;48.752;12.922;2022-10-15T13:29:57;0.98;;;0.60;;
4248;SDS011;8404;48.752;12.922;2022-10-15T13:32:28;1.63;;;0.50;;
4248;SDS011;8404;48.752;12.922;2022-10-15T13:34:59;1.60;;;0.90;;
4248;SDS011;8404;48.752;12.922;2022-10-15T13:37:30;1.48;;;0.60;;
4248;SDS011;8404;48.752;12.922;2022-10-15T13:40:01;1.13;;;0.60;;
4248;SDS011;8404;48.752;12.922;2022-10-15T13:42:34;1.00;;;0.68;;
4248;SDS011;8404;48.752;12.922;2022-10-15T13:45:03;1.10;;;0.63;;
4248;SDS011;8404;48.752;12.922;2022-10-15T13:47:47;0.70;;;0.50;;
4248;SDS011;8404;48.752;12.922;2022-10-15T13:50:17;1.80;;;0.82;;
4248;SDS011;8404;48.752;12.922;2022-10-15T13:52:48;1.90;;;0.90;;
4248;SDS011;8404;48.752;12.922;2022-10-15T13:55:21;1.67;;;0.95;;
4248;SDS011;8404;48.752;12.922;2022-10-15T13:57:53;2.58;;;1.65;;
4248;SDS011;8404;48.752;12.922;2022-10-15T14:00:27;3.72;;;2.47;;
4248;SDS011;8404;48.752;12.922;2022-10-15T14:05:52;3.50;;;2.33;;
4248;SDS011;8404;48.752;12.922;2022-10-15T14:08:22;3.88;;;2.58;;
4248;SDS011;8404;48.752;12.922;2022-10-15T14:10:53;2.80;;;1.95;;
4248;SDS011;8404;48.752;12.922;2022-10-15T14:13:23;3.10;;;2.38;;
4248;SDS011;8404;48.752;12.922;2022-10-15T14:15:54;2.65;;;1.88;;
4248;SDS011;8404;48.752;12.922;2022-10-15T14:18:28;3.10;;;1.85;;
4248;SDS011;8404;48.752;12.922;2022-10-15T14:20:59;2.42;;;2.08;;
4248;SDS011;8404;48.752;12.922;2022-10-15T14:23:28;3.50;;;2.45;;
4248;SDS011;8404;48.752;12.922;2022-10-15T14:25:58;3.28;;;2.13;;
4248;SDS011;8404;48.752;12.922;2022-10-15T14:28:29;2.53;;;1.75;;
4248;SDS011;8404;48.752;12.922;2022-10-15T14:30:59;2.70;;;1.90;;
4248;SDS011;8404;48.752;12.922;2022-10-15T14:33:32;2.95;;;1.45;;
4248;SDS011;8404;48.752;12.922;2022-10-15T14:36:10;2.20;;;1.60;;
4248;SDS011;8404;48.752;12.922;2022-10-15T14:38:52;1.80;;;1.20;;
4248;SDS011;8404;48.752;12.922;2022-10-15T14:41:25;2.72;;;1.45;;
4248;SDS011;8404;48.752;12.922;2022-10-15T14:43:58;1.20;;;0.90;;
4248;SDS011;8404;48.752;12.922;2022-10-15T14:46:31;1.92;;;1.23;;
4248;SDS011;8404;48.752;12.922;2022-10-15T14:49:14;2.60;;;1.42;;
4248;SDS011;8404;48.752;12.922;2022-10-15T14:51:50;2.15;;;1.33;;
4248;SDS011;8404;48.752;12.922;2022-10-15T14:54:22;1.70;;;1.20;;
4248;SDS011;8404;48.752;12.922;2022-10-15T14:56:56;1.85;;;1.40;;
4248;SDS011;8404;48.752;12.922;2022-10-15T14:59:27;1.80;;;1.15;;
4248;SDS011;8404;48.752;12.922;2022-10-15T15:01:59;2.05;;;1.30;;
4248;SDS011;8404;48.752;12.922;2022-10-15T15:04:39;1.45;;;1.10;;
4248;SDS011;8404;48.752;12.922;2022-10-15T15:07:10;2.97;;;1.30;;
4248;SDS011;8404;48.752;12.922;2022-10-15T15:09:41;1.50;;;1.02;;
4248;SDS011;8404;48.752;12.922;2022-10-15T15:12:11;1.98;;;1.23;;
4248;SDS011;8404;48.752;12.922;2022-10-15T15:14:45;1.67;;;0.93;;
4248;SDS011;8404;48.752;12.922;2022-10-15T15:17:18;1.58;;;0.95;;
4248;SDS011;8404;48.752;12.922;2022-10-15T15:19:49;1.60;;;1.10;;
4248;SDS011;8404;48.752;12.922;2022-10-15T15:22:22;1.80;;;0.90;;
4248;SDS011;8404;48.752;12.922;2022-10-15T15:24:54;2.53;;;1.23;;
4248;SDS011;8404;48.752;12.922;2022-10-15T15:27:24;2.65;;;1.30;;
4248;SDS011;8404;48.752;12.922;2022-10-15T15:29:54;1.95;;;1.40;;
4248;SDS011;8404;48.752;12.922;2022-10-15T15:32:24;2.10;;;0.90;;
4248;SDS011;8404;48.752;12.922;2022-10-15T15:34:54;0.90;;;0.50;;
4248;SDS011;8404;48.752;12.922;2022-10-15T15:37:24;1.40;;;0.60;;